createdAt,value
2023-02-17T00:02:57.477Z,11.15
2023-02-17T00:07:59.733Z,11.13
2023-02-17T00:13:01.862Z,11.95
2023-02-17T00:18:04.093Z,12.13
2023-02-17T00:23:06.206Z,6.90
2023-02-17T00:28:08.508Z,9.85
2023-02-17T00:33:10.757Z,10.48
2023-02-17T00:38:12.940Z,9.60
2023-02-17T00:43:15.083Z,11.80
2023-02-17T00:48:17.281Z,11.77
2023-02-17T00:53:20.735Z,9.98
2023-02-17T00:58:23.463Z,12.68
2023-02-17T01:03:26.180Z,17.35
2023-02-17T01:08:28.382Z,14.93
2023-02-17T01:13:30.565Z,12.05
2023-02-17T01:18:33.017Z,8.27
2023-02-17T01:23:35.211Z,15.32
2023-02-17T01:28:37.372Z,10.13
2023-02-17T01:33:40.087Z,12.05
2023-02-17T01:38:44.416Z,9.95
2023-02-17T01:44:05.053Z,13.20
2023-02-17T01:49:20.255Z,12.48
2023-02-17T01:54:26.950Z,14.88
2023-02-17T01:59:29.889Z,7.15
2023-02-17T02:04:33.951Z,9.00
2023-02-17T02:09:40.064Z,11.20
2023-02-17T02:14:42.246Z,9.57
2023-02-17T02:19:45.221Z,9.82
2023-02-17T02:24:57.657Z,9.32
2023-02-17T02:29:59.820Z,11.80
2023-02-17T02:35:25.552Z,8.43
2023-02-17T02:40:30.273Z,4.88
2023-02-17T02:45:32.612Z,12.90
2023-02-17T02:50:53.482Z,12.02
2023-02-17T02:56:14.246Z,11.50
2023-02-17T03:01:20.331Z,9.07
2023-02-17T03:06:25.666Z,9.10
2023-02-17T03:11:32.622Z,10.02
2023-02-17T03:16:37.582Z,8.05
2023-02-17T03:21:39.774Z,8.80
2023-02-17T03:26:42.969Z,10.30
2023-02-17T03:31:45.410Z,9.55
2023-02-17T03:36:47.722Z,9.70
2023-02-17T03:41:51.979Z,9.65
2023-02-17T03:46:54.178Z,12.20
2023-02-17T03:51:56.337Z,11.90
2023-02-17T03:56:59.844Z,9.27
2023-02-17T04:02:02.477Z,12.00
2023-02-17T04:07:04.659Z,12.25
2023-02-17T04:12:06.823Z,9.90
2023-02-17T04:17:08.960Z,13.57
2023-02-17T04:22:11.134Z,10.32
2023-02-17T04:27:13.425Z,9.93
2023-02-17T04:32:15.668Z,10.30
2023-02-17T04:37:17.859Z,12.20
2023-02-17T04:42:20.062Z,11.18
2023-02-17T04:47:23.241Z,13.88
2023-02-17T04:52:25.580Z,14.88
2023-02-17T04:57:27.788Z,8.70
2023-02-17T05:02:30.794Z,12.88
2023-02-17T05:07:32.976Z,10.48
2023-02-17T05:12:35.854Z,12.30
2023-02-17T05:17:38.379Z,9.73
2023-02-17T05:22:40.766Z,11.52
2023-02-17T05:32:45.044Z,10.02
2023-02-17T05:37:47.328Z,9.30
2023-02-17T05:42:49.519Z,11.60
2023-02-17T05:47:51.759Z,9.52
2023-02-17T05:52:53.993Z,9.25
2023-02-17T05:57:56.304Z,10.70
2023-02-17T06:02:58.543Z,13.38
2023-02-17T06:08:00.871Z,11.80
2023-02-17T06:18:05.254Z,5.90
2023-02-17T06:23:07.512Z,8.65
2023-02-17T06:28:09.741Z,11.60
2023-02-17T06:33:12.167Z,10.10
2023-02-17T06:38:14.344Z,8.98
2023-02-17T06:48:19.075Z,10.00
2023-02-17T06:53:21.406Z,10.98
2023-02-17T07:03:25.767Z,8.45
2023-02-17T07:08:28.077Z,10.93
2023-02-17T07:13:30.210Z,13.38
2023-02-17T07:18:32.493Z,10.55
2023-02-17T07:28:37.246Z,7.47
2023-02-17T07:33:39.695Z,10.77
2023-02-17T07:43:44.376Z,10.15
2023-02-17T07:48:47.406Z,7.38
2023-02-17T07:53:50.154Z,12.70
2023-02-17T07:58:52.761Z,8.93
2023-02-17T08:03:56.482Z,12.60
2023-02-17T08:09:17.808Z,8.85
2023-02-17T08:14:23.766Z,8.80
2023-02-17T08:24:53.198Z,12.52
2023-02-17T08:34:58.138Z,7.90
2023-02-17T08:45:02.457Z,12.18
2023-02-17T08:50:06.825Z,11.95
2023-02-17T08:55:09.046Z,14.15
2023-02-17T09:05:14.173Z,13.20
2023-02-17T09:10:16.354Z,12.32
2023-02-17T09:20:25.109Z,15.73
2023-02-17T09:25:27.690Z,9.88
2023-02-17T09:30:30.518Z,7.65
2023-02-17T09:35:33.235Z,11.52
2023-02-17T09:40:38.547Z,13.43
2023-02-17T09:45:42.336Z,13.60
2023-02-17T09:50:44.770Z,15.90
2023-02-17T09:55:49.067Z,12.90
2023-02-17T10:00:54.178Z,11.23
2023-02-17T10:06:12.451Z,11.90
2023-02-17T10:11:17.962Z,14.02
2023-02-17T10:16:22.713Z,14.82
2023-02-17T10:21:34.328Z,11.52
2023-02-17T10:26:45.733Z,8.27
2023-02-17T10:31:53.213Z,10.65
2023-02-17T10:37:03.429Z,7.65
2023-02-17T10:42:06.731Z,11.65
2023-02-17T10:47:10.510Z,12.82
2023-02-17T10:52:33.214Z,11.23
2023-02-17T10:57:39.593Z,12.90
2023-02-17T11:02:43.046Z,15.15
2023-02-17T11:07:46.011Z,14.70
2023-02-17T11:12:51.373Z,12.95
2023-02-17T11:17:54.176Z,13.07
2023-02-17T11:28:25.126Z,13.38
2023-02-17T11:33:41.822Z,8.77
2023-02-17T11:38:53.336Z,13.75
2023-02-17T11:44:02.580Z,10.52
2023-02-17T11:49:11.023Z,11.63
2023-02-17T11:54:30.271Z,7.97
2023-02-17T11:59:51.230Z,12.38
2023-02-17T12:04:56.886Z,17.08
2023-02-17T12:10:04.449Z,11.15
2023-02-17T12:15:16.136Z,11.32
2023-02-17T12:20:21.602Z,9.90
2023-02-17T12:25:33.636Z,11.90
2023-02-17T12:30:53.373Z,12.88
2023-02-17T12:35:57.042Z,9.75
2023-02-17T12:41:17.871Z,15.30
2023-02-17T12:46:29.078Z,10.05
2023-02-17T12:51:34.113Z,11.32
2023-02-17T12:56:42.186Z,12.38
2023-02-17T13:06:51.000Z,11.23
2023-02-17T13:11:53.736Z,13.60
2023-02-17T13:16:56.995Z,17.55
2023-02-17T13:22:00.383Z,16.15
2023-02-17T13:27:11.504Z,16.08
2023-02-17T13:32:14.929Z,11.95
2023-02-17T13:37:20.516Z,13.40
2023-02-17T13:42:42.528Z,10.82
2023-02-17T13:47:45.388Z,14.30
2023-02-17T13:52:47.595Z,10.70
2023-02-17T13:57:53.054Z,10.82
2023-02-17T14:02:59.340Z,10.70
2023-02-17T14:08:12.401Z,14.57
2023-02-17T14:13:14.737Z,11.52
2023-02-17T14:18:17.023Z,15.35
2023-02-17T14:23:19.191Z,14.50
2023-02-17T14:33:25.027Z,19.73
2023-02-17T14:38:28.823Z,21.83
2023-02-17T14:43:30.951Z,15.80
2023-02-17T14:53:40.682Z,11.77
2023-02-17T14:58:42.854Z,11.43
2023-02-17T15:03:45.017Z,16.50
2023-02-17T15:08:49.570Z,12.05
2023-02-17T15:13:51.821Z,14.98
2023-02-17T15:18:53.990Z,17.75
2023-02-17T15:23:57.429Z,18.35
2023-02-17T15:28:59.618Z,16.40
2023-02-17T15:34:01.797Z,22.35
2023-02-17T15:39:03.966Z,31.77
2023-02-17T15:44:07.487Z,24.08
2023-02-17T15:49:11.480Z,20.02
2023-02-17T15:54:13.620Z,17.45
2023-02-17T15:59:18.062Z,21.73
2023-02-17T16:04:20.306Z,18.65
2023-02-17T16:09:22.424Z,22.02
2023-02-17T16:14:31.864Z,21.48
2023-02-17T16:19:34.680Z,17.65
2023-02-17T16:24:37.140Z,17.60
2023-02-17T16:29:40.085Z,13.80
2023-02-17T16:34:43.045Z,17.42
2023-02-17T16:39:45.556Z,12.70
2023-02-17T16:44:48.842Z,15.15
2023-02-17T16:49:50.999Z,19.08
2023-02-17T16:54:53.870Z,19.23
2023-02-17T16:59:57.461Z,20.90
2023-02-17T17:04:59.544Z,17.85
2023-02-17T17:10:15.830Z,17.90
2023-02-17T17:15:19.264Z,17.42
2023-02-17T17:20:24.280Z,11.05
2023-02-17T17:25:26.877Z,16.88
2023-02-17T17:30:30.468Z,16.95
2023-02-17T17:35:32.813Z,15.00
2023-02-17T17:40:48.886Z,13.68
2023-02-17T17:45:51.924Z,13.38
2023-02-17T17:50:54.078Z,11.38
2023-02-17T17:55:56.177Z,12.27
2023-02-17T18:00:59.032Z,13.68
2023-02-17T18:06:01.349Z,16.65
2023-02-17T18:11:04.089Z,13.00
2023-02-17T18:16:06.533Z,10.93
2023-02-17T18:21:09.209Z,10.68
2023-02-17T18:26:12.336Z,17.08
2023-02-17T18:31:15.754Z,11.98
2023-02-17T18:36:19.676Z,10.88
2023-02-17T18:41:29.644Z,16.70
2023-02-17T18:46:34.481Z,9.93
2023-02-17T18:51:36.713Z,11.50
2023-02-17T18:56:39.037Z,15.07
2023-02-17T19:01:42.783Z,13.23
2023-02-17T19:06:45.256Z,10.63
2023-02-17T19:11:47.466Z,12.95
2023-02-17T19:16:49.705Z,13.68
2023-02-17T19:21:51.926Z,13.93
2023-02-17T19:26:55.077Z,15.82
2023-02-17T19:31:58.352Z,12.15
2023-02-17T19:37:00.651Z,15.73
2023-02-17T19:42:03.587Z,13.93
2023-02-17T19:47:05.736Z,12.25
2023-02-17T19:52:08.137Z,15.02
2023-02-17T20:02:15.739Z,10.88
2023-02-17T20:07:17.911Z,15.20
2023-02-17T20:12:20.160Z,14.70
2023-02-17T20:17:22.348Z,18.70
2023-02-17T20:22:24.573Z,9.85
2023-02-17T20:27:26.823Z,12.57
2023-02-17T20:32:29.208Z,27.83
2023-02-17T20:42:33.480Z,20.40
2023-02-17T20:47:40.400Z,22.30
2023-02-17T20:52:42.593Z,16.15
2023-02-17T20:57:44.841Z,18.20
2023-02-17T21:02:47.124Z,19.50
2023-02-17T21:07:49.701Z,22.83
2023-02-17T21:17:53.938Z,19.27
2023-02-17T21:22:56.279Z,15.88
2023-02-17T21:27:58.612Z,19.40
2023-02-17T21:33:01.126Z,24.92
2023-02-17T21:43:24.105Z,15.57
2023-02-17T21:48:26.265Z,15.70
2023-02-17T21:53:28.419Z,20.02
2023-02-17T21:58:31.155Z,17.08
2023-02-17T22:03:33.760Z,15.27
2023-02-17T22:13:37.855Z,15.32
2023-02-17T22:18:40.494Z,19.35
2023-02-17T22:23:43.076Z,6.18
2023-02-17T22:28:45.493Z,20.50
2023-02-17T22:33:47.730Z,13.63
2023-02-17T22:38:50.949Z,16.08
2023-02-17T22:43:54.352Z,18.90
2023-02-17T22:48:58.157Z,24.80
2023-02-17T22:54:00.940Z,15.45
2023-02-17T22:59:04.581Z,19.67
2023-02-17T23:04:06.923Z,22.35
2023-02-17T23:09:14.823Z,23.25
2023-02-17T23:14:25.019Z,17.58
2023-02-17T23:19:28.076Z,26.35
2023-02-17T23:24:30.319Z,23.02
2023-02-17T23:29:32.874Z,15.80
2023-02-17T23:34:35.054Z,24.83
2023-02-17T23:39:38.348Z,18.55
2023-02-17T23:44:40.510Z,22.88
2023-02-17T23:49:42.664Z,22.70
2023-02-17T23:54:44.805Z,21.48
2023-02-17T23:59:46.974Z,8.63
